Overview Statistics Trail Chart Weather Telemetry Raw packets
 

This is the latest recevied weather packets stored in our database for station/object LRTR. If no packets are shown the sender has not sent any weather packets the latest 10 day(s).

<< 28 29 30 31 32 33 34 >>
Time Temp. Humidity Pressure Rain* Wind** Luminosity Snow
1777059185 8.89° C 82% 1014 hPa - - - -
1777058286 8.89° C 82% 1014 hPa - - - -
1777057385 8.89° C 82% 1014 hPa - - - -
1777056485 12.22° C 72% 1014 hPa - - - -
1777055585 12.22° C 72% 1014 hPa - - - -
1777054682 15° C 51% 1013 hPa - - - -
1777053785 15° C 51% 1013 hPa - - - -
1777052886 17.22° C 45% 1013 hPa - - - -
1777051985 17.22° C 45% 1013 hPa - - - -
1777051085 17.78° C 46% 1013 hPa - - - -
1777050184 17.78° C 46% 1013 hPa - - - -
1777049285 17.78° C 43% 1013 hPa - - - -
1777048385 17.78° C 43% 1013 hPa - - - -
1777047560 18.89° C 35% 1013 hPa - - - -
1777046585 18.89° C 35% 1013 hPa - - - -
1777045685 17.78° C 43% 1013 hPa - - - -
1777044785 17.78° C 43% 1013 hPa - - - -
1777043885 17.78° C 43% 1013 hPa - - - -
1777042985 17.78° C 43% 1013 hPa - - - -
1777042085 18.89° C 35% 1013 hPa - - - -
1777041185 18.89° C 35% 1013 hPa - - - -
1777040285 18.89° C 37% 1013 hPa - - - -
1777039385 18.89° C 37% 1013 hPa - - - -
1777038484 18.89° C 35% 1014 hPa - - - -
1777037585 18.89° C 35% 1014 hPa - - - -

* Rain since midnight (hover to see other rain measurements)
** Current wind speed in m/s (hover to see current wind gust speed)